createdAt,value
2023-04-20T00:00:11.802Z,99726.94
2023-04-20T00:02:45.534Z,99731.63
2023-04-20T00:05:16.260Z,99733.44
2023-04-20T00:07:48.807Z,99728.53
2023-04-20T00:10:22.090Z,99732.28
2023-04-20T00:12:52.420Z,99734.56
2023-04-20T00:15:22.822Z,99718.41
2023-04-20T00:17:55.746Z,99729.47
2023-04-20T00:20:26.144Z,99726.19
2023-04-20T00:22:56.440Z,99724.03
2023-04-20T00:25:26.683Z,99720.59
2023-04-20T00:27:56.964Z,99729.91
2023-04-20T00:30:27.681Z,99727.38
2023-04-20T00:33:00.584Z,99715.53
2023-04-20T00:35:31.864Z,99724.91
2023-04-20T00:38:02.512Z,99725.97
2023-04-20T00:40:33.729Z,99718.91
2023-04-20T00:43:12.759Z,99716.16
2023-04-20T00:45:43.221Z,99718.47
2023-04-20T00:48:17.052Z,99722.44
2023-04-20T00:50:48.589Z,99718.88
2023-04-20T00:53:19.702Z,99719.41
2023-04-20T00:55:54.041Z,99720.25
2023-04-20T00:58:24.754Z,99719.91
2023-04-20T01:00:55.133Z,99732.63
2023-04-20T01:03:28.523Z,99718.50
2023-04-20T01:05:59.091Z,99714.78
2023-04-20T01:08:30.326Z,99713.34
2023-04-20T01:11:00.680Z,99719.13
2023-04-20T01:13:31.062Z,99713.88
2023-04-20T01:16:05.090Z,99715.88
2023-04-20T01:18:47.547Z,99721.22
2023-04-20T01:21:19.544Z,99721.03
2023-04-20T01:23:53.168Z,99707.06
2023-04-20T01:26:25.012Z,99719.25
2023-04-20T01:28:55.835Z,99714.88
2023-04-20T01:31:26.124Z,99705.63
2023-04-20T01:33:56.315Z,99705.13
2023-04-20T01:36:27.406Z,99708.22
2023-04-20T01:39:00.309Z,99718.06
2023-04-20T01:41:30.684Z,99709.44
2023-04-20T01:44:02.123Z,99706.91
2023-04-20T01:46:32.497Z,99712.56
2023-04-20T01:49:03.300Z,99712.56
2023-04-20T01:51:38.250Z,99709.94
2023-04-20T01:54:11.108Z,99703.13
2023-04-20T01:56:41.363Z,99706.41
2023-04-20T01:59:14.681Z,99693.47
2023-04-20T02:01:45.401Z,99703.31
2023-04-20T02:04:15.904Z,99703.69
2023-04-20T02:06:46.204Z,99704.06
2023-04-20T02:09:19.486Z,99704.88
2023-04-20T02:11:50.090Z,99712.28
2023-04-20T02:14:20.362Z,99720.22
2023-04-20T02:16:50.830Z,99709.50
2023-04-20T02:19:21.510Z,99704.47
2023-04-20T02:21:54.486Z,99715.16
2023-04-20T02:24:27.466Z,99714.38
2023-04-20T02:26:57.737Z,99712.56
2023-04-20T02:29:28.141Z,99716.16
2023-04-20T02:31:58.675Z,99712.31
2023-04-20T02:34:29.037Z,99715.56
2023-04-20T02:36:59.280Z,99714.72
2023-04-20T02:39:32.321Z,99709.63
2023-04-20T02:42:03.060Z,99716.22
2023-04-20T02:44:33.280Z,99715.88
2023-04-20T02:47:03.455Z,99714.00
2023-04-20T02:49:33.754Z,99712.09
2023-04-20T02:52:04.834Z,99710.78
2023-04-20T02:54:37.728Z,99717.03
2023-04-20T02:57:08.006Z,99723.78
2023-04-20T02:59:38.303Z,99719.72
2023-04-20T03:02:08.837Z,99727.63
2023-04-20T03:04:39.578Z,99724.88
2023-04-20T03:07:10.397Z,99718.53
2023-04-20T03:09:43.385Z,99722.38
2023-04-20T03:12:13.792Z,99730.72
2023-04-20T03:14:44.025Z,99727.16
2023-04-20T03:17:14.307Z,99729.41
2023-04-20T03:19:44.667Z,99729.47
2023-04-20T03:22:15.045Z,99724.59
2023-04-20T03:24:48.237Z,99712.63
2023-04-20T03:27:18.508Z,99723.16
2023-04-20T03:29:49.105Z,99725.91
2023-04-20T03:32:19.480Z,99721.75
2023-04-20T03:34:57.049Z,99725.94
2023-04-20T03:37:27.377Z,99723.44
2023-04-20T03:40:00.624Z,99728.81
2023-04-20T03:42:30.910Z,99733.59
2023-04-20T03:45:01.523Z,99733.09
2023-04-20T03:47:31.860Z,99731.41
2023-04-20T03:50:02.191Z,99742.50
2023-04-20T03:52:32.738Z,99736.56
2023-04-20T03:55:05.658Z,99740.63
2023-04-20T03:57:36.711Z,99736.34
2023-04-20T04:00:07.973Z,99740.06
2023-04-20T04:02:38.787Z,99726.53
2023-04-20T04:05:10.451Z,99730.59
2023-04-20T04:07:40.844Z,99738.00
2023-04-20T04:10:17.067Z,99733.94
2023-04-20T04:12:47.882Z,99744.81
2023-04-20T04:15:19.467Z,99745.75
2023-04-20T04:17:49.891Z,99754.25
2023-04-20T04:20:20.221Z,99743.59
2023-04-20T04:22:52.318Z,99752.09
2023-04-20T04:25:25.557Z,99744.78
2023-04-20T04:27:55.883Z,99747.31
2023-04-20T04:30:26.434Z,99750.25
2023-04-20T04:32:57.056Z,99749.78
2023-04-20T04:35:30.711Z,99748.56
2023-04-20T04:38:01.246Z,99753.06
2023-04-20T04:40:34.210Z,99760.25
2023-04-20T04:43:05.099Z,99751.16
2023-04-20T04:45:35.368Z,99752.91
2023-04-20T04:48:08.062Z,99746.16
2023-04-20T04:50:39.274Z,99758.44
2023-04-20T04:53:09.550Z,99761.97
2023-04-20T04:55:42.402Z,99750.59
2023-04-20T04:58:14.961Z,99753.59
2023-04-20T05:00:45.256Z,99757.88
2023-04-20T05:03:16.345Z,99755.19
2023-04-20T05:05:47.199Z,99763.16
2023-04-20T05:08:17.488Z,99751.53
2023-04-20T05:10:50.731Z,99756.03
2023-04-20T05:13:21.287Z,99770.69
2023-04-20T05:15:51.555Z,99768.72
2023-04-20T05:18:24.680Z,99772.94
2023-04-20T05:20:55.398Z,99772.03
2023-04-20T05:23:25.779Z,99764.03
2023-04-20T05:25:58.640Z,99771.94
2023-04-20T05:28:28.998Z,99771.94
2023-04-20T05:30:59.300Z,99772.31
2023-04-20T05:33:29.946Z,99769.88
2023-04-20T05:36:00.942Z,99777.47
2023-04-20T05:38:31.339Z,99776.41
2023-04-20T05:41:04.980Z,99771.50
2023-04-20T05:43:35.385Z,99771.69
2023-04-20T05:46:05.706Z,99774.69
2023-04-20T05:48:36.134Z,99771.69
2023-04-20T05:51:06.478Z,99770.00
2023-04-20T05:53:36.753Z,99772.69
2023-04-20T05:56:10.912Z,99766.13
2023-04-20T05:58:41.559Z,99768.81
2023-04-20T06:01:11.833Z,99765.78
2023-04-20T06:03:42.643Z,99765.69
2023-04-20T06:06:14.887Z,99773.59
2023-04-20T06:08:46.770Z,99771.03
2023-04-20T06:11:19.646Z,99768.16
2023-04-20T06:13:49.930Z,99766.91
2023-04-20T06:16:22.762Z,99766.59
2023-04-20T06:18:53.169Z,99767.75
2023-04-20T06:21:24.789Z,99768.78
2023-04-20T06:23:55.141Z,99769.41
2023-04-20T06:26:28.118Z,99764.09
2023-04-20T06:28:58.345Z,99764.00
2023-04-20T06:31:28.618Z,99763.72
2023-04-20T06:33:59.418Z,99767.56
2023-04-20T06:36:30.075Z,99767.47
2023-04-20T06:39:00.544Z,99767.00
2023-04-20T06:41:33.648Z,99760.88
2023-04-20T06:44:03.971Z,99764.88
2023-04-20T06:46:34.392Z,99761.13
2023-04-20T06:49:07.254Z,99759.06
2023-04-20T06:51:37.570Z,99763.78
2023-04-20T06:54:08.504Z,99761.56
2023-04-20T06:56:41.324Z,99759.03
2023-04-20T06:59:11.705Z,99757.84
2023-04-20T07:01:42.292Z,99761.41
2023-04-20T07:04:12.768Z,99759.59
2023-04-20T07:06:43.119Z,99762.81
2023-04-20T07:09:13.385Z,99764.66
2023-04-20T07:11:49.220Z,99768.94
2023-04-20T07:17:43.449Z,99765.69
2023-04-20T07:20:14.349Z,99758.25
2023-04-20T07:22:44.838Z,99764.94
2023-04-20T07:25:18.221Z,99753.47
2023-04-20T07:27:51.136Z,99768.25
2023-04-20T07:30:23.533Z,99768.84
2023-04-20T07:32:54.036Z,99764.19
2023-04-20T07:35:25.049Z,99768.06
2023-04-20T07:37:55.955Z,99770.06
2023-04-20T07:40:26.730Z,99763.38
2023-04-20T07:42:59.862Z,99768.22
2023-04-20T07:45:30.569Z,99766.69
2023-04-20T07:48:01.764Z,99771.81
2023-04-20T07:50:32.193Z,99764.56
2023-04-20T07:53:02.500Z,99769.44
2023-04-20T07:55:33.295Z,99774.69
2023-04-20T07:58:06.347Z,99771.31
2023-04-20T08:00:36.704Z,99769.44
2023-04-20T08:03:08.473Z,99765.06
2023-04-20T08:05:40.993Z,99775.38
2023-04-20T08:08:11.327Z,99772.53
2023-04-20T08:10:41.626Z,99764.34
2023-04-20T08:13:15.482Z,99774.53
2023-04-20T08:15:46.101Z,99765.81
2023-04-20T08:18:16.369Z,99762.31
2023-04-20T08:20:46.669Z,99764.34
2023-04-20T08:23:19.262Z,99765.78
2023-04-20T08:25:52.332Z,99761.56
2023-04-20T08:28:33.313Z,99754.94
2023-04-20T08:31:04.602Z,99765.59
2023-04-20T08:33:34.882Z,99769.00
2023-04-20T08:36:05.243Z,99769.41
2023-04-20T08:38:37.900Z,99771.63
2023-04-20T08:41:08.667Z,99764.16
2023-04-20T08:43:41.884Z,99774.38
2023-04-20T08:46:12.773Z,99761.81
2023-04-20T08:48:48.763Z,99768.56
2023-04-20T08:51:20.344Z,99761.84
2023-04-20T08:53:50.981Z,99766.66
2023-04-20T08:56:21.481Z,99757.81
2023-04-20T08:58:54.754Z,99757.28
2023-04-20T09:01:35.682Z,99754.22
2023-04-20T09:04:19.817Z,99767.19
2023-04-20T09:06:52.145Z,99760.19
2023-04-20T09:09:23.838Z,99759.25
2023-04-20T09:12:07.541Z,99762.94
2023-04-20T09:14:49.103Z,99768.13
2023-04-20T09:17:20.557Z,99759.28
2023-04-20T09:19:56.690Z,99766.84
2023-04-20T09:22:33.055Z,99764.78
2023-04-20T09:25:14.850Z,99753.75
2023-04-20T09:27:45.134Z,99748.97
2023-04-20T09:30:18.474Z,99743.69
2023-04-20T09:32:50.436Z,99742.22
2023-04-20T09:35:26.154Z,99738.50
2023-04-20T09:37:57.051Z,99747.84
2023-04-20T09:40:28.686Z,99738.09
2023-04-20T09:43:03.273Z,99746.03
2023-04-20T09:45:36.970Z,99737.16
2023-04-20T09:48:08.366Z,99742.66
2023-04-20T09:50:48.361Z,99739.00
2023-04-20T09:53:21.085Z,99734.13
2023-04-20T09:55:52.712Z,99740.78
2023-04-20T09:58:24.011Z,99738.19
2023-04-20T10:00:57.440Z,99740.44
2023-04-20T10:03:29.001Z,99739.13
2023-04-20T10:05:59.704Z,99735.66
2023-04-20T10:08:30.144Z,99731.63
2023-04-20T10:11:00.587Z,99734.19
2023-04-20T10:13:36.544Z,99735.78
2023-04-20T10:16:21.150Z,99730.50
2023-04-20T10:19:02.966Z,99732.75
2023-04-20T10:21:33.578Z,99722.69
2023-04-20T10:24:04.469Z,99725.00
2023-04-20T10:26:41.319Z,99726.16
2023-04-20T10:29:12.730Z,99723.47
2023-04-20T10:31:46.043Z,99726.84
2023-04-20T10:34:16.684Z,99725.44
2023-04-20T10:36:47.142Z,99716.81
2023-04-20T10:39:20.017Z,99721.38
2023-04-20T10:41:58.718Z,99703.50
2023-04-20T10:44:29.603Z,99710.00
2023-04-20T10:47:02.812Z,99719.09
2023-04-20T10:49:33.614Z,99702.69
2023-04-20T10:52:03.981Z,99712.22
2023-04-20T10:54:40.781Z,99703.47
2023-04-20T10:57:11.094Z,99703.66
2023-04-20T10:59:42.374Z,99697.91
2023-04-20T11:02:18.069Z,99702.84
2023-04-20T11:04:48.866Z,99706.59
2023-04-20T11:07:20.432Z,99694.97
2023-04-20T11:09:56.941Z,99700.41
2023-04-20T11:12:27.318Z,99701.28
2023-04-20T11:15:03.317Z,99697.66
2023-04-20T11:17:41.164Z,99692.81
2023-04-20T11:20:15.896Z,99698.59
2023-04-20T11:22:47.465Z,99699.03
2023-04-20T11:25:17.727Z,99689.31
2023-04-20T11:27:48.049Z,99684.16
2023-04-20T11:30:21.405Z,99686.03
2023-04-20T11:32:59.263Z,99693.72
2023-04-20T11:35:29.669Z,99691.28
2023-04-20T11:38:01.040Z,99685.38
2023-04-20T11:40:32.712Z,99695.69
2023-04-20T11:43:05.028Z,99687.19
2023-04-20T11:45:36.979Z,99683.53
2023-04-20T11:48:13.093Z,99684.75
2023-04-20T11:50:43.476Z,99686.69
2023-04-20T11:53:15.011Z,99694.59
2023-04-20T11:55:45.296Z,99692.34
2023-04-20T11:58:15.852Z,99689.63
2023-04-20T12:00:46.136Z,99685.22
2023-04-20T12:03:19.476Z,99686.88
2023-04-20T12:05:51.604Z,99685.69
2023-04-20T12:08:22.028Z,99685.41
2023-04-20T12:10:57.362Z,99689.44
2023-04-20T12:13:29.055Z,99677.84
2023-04-20T12:15:59.397Z,99683.22
2023-04-20T12:18:35.295Z,99681.16
2023-04-20T12:21:05.999Z,99673.72
2023-04-20T12:23:37.126Z,99678.03
2023-04-20T12:26:07.764Z,99673.22
2023-04-20T12:28:38.501Z,99686.94
2023-04-20T12:31:08.918Z,99688.09
2023-04-20T12:33:41.850Z,99689.50
2023-04-20T12:36:12.573Z,99689.66
2023-04-20T12:38:42.873Z,99682.88
2023-04-20T12:41:17.652Z,99682.91
2023-04-20T12:43:50.301Z,99677.88
2023-04-20T12:46:21.005Z,99676.91
2023-04-20T12:48:53.845Z,99672.28
2023-04-20T12:51:27.402Z,99682.34
2023-04-20T12:53:57.662Z,99677.41
2023-04-20T12:56:28.068Z,99669.16
2023-04-20T12:58:58.540Z,99676.06
2023-04-20T13:01:28.857Z,99675.88
2023-04-20T13:04:01.932Z,99671.16
2023-04-20T13:06:32.958Z,99671.56
2023-04-20T13:09:04.271Z,99668.88
2023-04-20T13:11:34.538Z,99667.00
2023-04-20T13:14:05.235Z,99671.59
2023-04-20T13:16:35.652Z,99676.34
2023-04-20T13:19:08.537Z,99663.31
2023-04-20T13:21:39.001Z,99667.03
2023-04-20T13:24:09.901Z,99665.75
2023-04-20T13:26:42.347Z,99650.66
2023-04-20T13:29:12.611Z,99661.41
2023-04-20T13:31:43.552Z,99658.47
2023-04-20T13:34:16.593Z,99659.88
2023-04-20T13:36:47.245Z,99651.00
2023-04-20T13:39:20.274Z,99643.75
2023-04-20T13:41:51.944Z,99656.22
2023-04-20T13:44:22.298Z,99641.91
2023-04-20T13:46:52.697Z,99649.22
2023-04-20T13:49:25.534Z,99650.34
2023-04-20T13:51:56.889Z,99643.41
2023-04-20T13:54:27.117Z,99643.22
2023-04-20T13:56:58.131Z,99636.78
2023-04-20T13:59:28.758Z,99629.34
2023-04-20T14:01:59.039Z,99643.19
2023-04-20T14:04:32.001Z,99634.09
2023-04-20T14:07:02.278Z,99637.22
2023-04-20T14:09:34.150Z,99638.66
2023-04-20T14:12:04.508Z,99648.72
2023-04-20T14:14:34.735Z,99661.47
2023-04-20T14:17:05.159Z,99661.78
2023-04-20T14:19:38.042Z,99657.50
2023-04-20T14:22:08.416Z,99666.94
2023-04-20T14:24:38.639Z,99665.09
2023-04-20T14:27:08.963Z,99670.88
2023-04-20T14:29:39.341Z,99674.59
2023-04-20T14:32:09.745Z,99701.66
2023-04-20T14:34:42.611Z,99692.28
2023-04-20T14:37:12.907Z,99682.59
2023-04-20T14:39:43.254Z,99679.78
2023-04-20T14:42:14.485Z,99661.84
2023-04-20T14:44:48.078Z,99656.13
2023-04-20T14:47:18.473Z,99657.88
2023-04-20T14:49:51.484Z,99659.72
2023-04-20T14:52:21.998Z,99665.13
2023-04-20T14:54:52.422Z,99660.72
2023-04-20T14:57:22.977Z,99664.22
2023-04-20T14:59:53.459Z,99659.53
2023-04-20T15:02:23.982Z,99664.34
2023-04-20T15:05:01.202Z,99659.44
2023-04-20T15:07:31.756Z,99663.88
2023-04-20T15:10:02.994Z,99659.97
2023-04-20T15:12:33.496Z,99667.31
2023-04-20T15:15:03.825Z,99660.63
2023-04-20T15:17:34.297Z,99675.94
2023-04-20T15:20:08.864Z,99679.56
2023-04-20T15:22:40.139Z,99682.47
2023-04-20T15:25:11.654Z,99680.38
2023-04-20T15:27:46.958Z,99677.44
2023-04-20T15:30:17.681Z,99670.72
2023-04-20T15:32:48.225Z,99684.25
2023-04-20T15:35:21.296Z,99684.06
2023-04-20T15:37:51.562Z,99684.25
2023-04-20T15:40:22.197Z,99688.75
2023-04-20T15:42:52.896Z,99690.25
2023-04-20T15:45:23.190Z,99684.25
2023-04-20T15:47:54.035Z,99672.31
2023-04-20T15:50:27.440Z,99696.66
2023-04-20T15:52:57.883Z,99689.34
2023-04-20T15:55:34.769Z,99687.41
2023-04-20T15:58:05.053Z,99693.00
2023-04-20T16:00:35.572Z,99699.34
2023-04-20T16:03:08.732Z,99695.78
2023-04-20T16:05:41.827Z,99686.47
2023-04-20T16:08:13.350Z,99693.06
2023-04-20T16:10:44.008Z,99692.22
2023-04-20T16:13:14.530Z,99694.94
2023-04-20T16:15:45.120Z,99675.53
2023-04-20T16:18:27.367Z,99688.97
2023-04-20T16:21:00.492Z,99689.47
2023-04-20T16:23:31.774Z,99694.75
2023-04-20T16:26:02.326Z,99684.28
2023-04-20T16:28:33.446Z,99693.28
2023-04-20T16:31:04.051Z,99699.56
2023-04-20T16:33:34.882Z,99693.16
2023-04-20T16:36:08.569Z,99692.03
2023-04-20T16:38:38.655Z,99696.47
2023-04-20T16:41:10.833Z,99702.28
2023-04-20T16:43:41.323Z,99708.72
2023-04-20T16:46:16.698Z,99703.78
2023-04-20T16:48:47.087Z,99702.38
2023-04-20T16:51:20.107Z,99710.13
2023-04-20T16:53:50.418Z,99700.81
2023-04-20T16:56:22.199Z,99703.53
2023-04-20T16:58:52.782Z,99711.19
2023-04-20T17:01:23.495Z,99700.03
2023-04-20T17:03:54.092Z,99702.13
2023-04-20T17:06:27.758Z,99699.34
2023-04-20T17:09:05.547Z,99705.84
2023-04-20T17:11:40.716Z,99708.59
2023-04-20T17:14:13.689Z,99703.50
2023-04-20T17:16:44.133Z,99707.06
2023-04-20T17:19:14.515Z,99709.78
2023-04-20T17:21:47.678Z,99710.50
2023-04-20T17:24:21.266Z,99719.88
2023-04-20T17:26:52.431Z,99721.06
2023-04-20T17:29:22.775Z,99713.31
2023-04-20T17:31:53.185Z,99716.81
2023-04-20T17:34:24.044Z,99717.72
2023-04-20T17:36:59.968Z,99718.88
2023-04-20T17:39:30.452Z,99723.06
2023-04-20T17:42:01.664Z,99716.97
2023-04-20T17:44:31.929Z,99725.09
2023-04-20T17:47:21.629Z,99726.34
2023-04-20T17:49:52.267Z,99728.44
2023-04-20T17:52:27.178Z,99725.28
2023-04-20T17:54:57.847Z,99731.53
2023-04-20T17:57:28.134Z,99725.13
2023-04-20T17:59:58.515Z,99725.47
2023-04-20T18:02:29.081Z,99726.78
2023-04-20T18:05:01.163Z,99730.63
2023-04-20T18:07:34.252Z,99726.19
2023-04-20T18:10:05.024Z,99735.69
2023-04-20T18:12:35.457Z,99732.53
2023-04-20T18:15:08.082Z,99739.22
2023-04-20T18:17:41.059Z,99739.25
2023-04-20T18:20:12.268Z,99748.41
2023-04-20T18:22:50.534Z,99744.25
2023-04-20T18:25:24.590Z,99739.94
2023-04-20T18:27:54.661Z,99748.09
2023-04-20T18:30:25.094Z,99747.25
2023-04-20T18:32:55.465Z,99743.28
2023-04-20T18:35:28.812Z,99754.75
2023-04-20T18:38:01.775Z,99753.06
2023-04-20T18:40:32.670Z,99753.22
2023-04-20T18:43:03.142Z,99749.41
2023-04-20T18:45:34.344Z,99761.72
2023-04-20T18:48:06.896Z,99753.22
2023-04-20T18:50:37.844Z,99756.22
2023-04-20T18:53:10.778Z,99757.22
2023-04-20T18:55:43.065Z,99775.03
2023-04-20T18:58:13.314Z,99771.34
2023-04-20T19:00:49.684Z,99765.84
2023-04-20T19:03:20.449Z,99774.88
2023-04-20T19:05:53.199Z,99768.53
2023-04-20T19:08:28.022Z,99771.84
2023-04-20T19:10:59.281Z,99771.03
2023-04-20T19:13:29.810Z,99772.16
2023-04-20T19:16:01.222Z,99770.53
2023-04-20T19:18:31.565Z,99774.03
2023-04-20T19:21:04.117Z,99771.69
2023-04-20T19:23:37.588Z,99768.38
2023-04-20T19:26:07.956Z,99779.16
2023-04-20T19:28:38.363Z,99775.00
2023-04-20T19:31:09.645Z,99781.16
2023-04-20T19:33:40.384Z,99787.97
2023-04-20T19:36:10.834Z,99789.28
2023-04-20T19:38:43.820Z,99784.97
2023-04-20T19:41:14.170Z,99790.78
2023-04-20T19:43:44.436Z,99784.78
2023-04-20T19:46:16.854Z,99792.41
2023-04-20T19:48:47.409Z,99787.56
2023-04-20T19:51:19.414Z,99791.59
2023-04-20T19:53:52.353Z,99788.59
2023-04-20T19:56:22.674Z,99791.38
2023-04-20T19:58:53.384Z,99794.88
2023-04-20T20:01:26.434Z,99796.44
2023-04-20T20:03:57.459Z,99791.22
2023-04-20T20:06:27.989Z,99793.88
2023-04-20T20:09:01.121Z,99791.88
2023-04-20T20:11:31.793Z,99789.34
2023-04-20T20:14:02.134Z,99792.34
2023-04-20T20:16:32.425Z,99795.31
2023-04-20T20:19:02.753Z,99798.22
2023-04-20T20:21:32.996Z,99795.41
2023-04-20T20:24:06.097Z,99795.16
2023-04-20T20:26:39.010Z,99800.22
2023-04-20T20:29:09.478Z,99808.41
2023-04-20T20:31:39.813Z,99810.19
2023-04-20T20:34:10.186Z,99805.94
2023-04-20T20:36:42.744Z,99804.13
2023-04-20T20:39:16.186Z,99804.38
2023-04-20T20:41:46.760Z,99808.78
2023-04-20T20:44:18.039Z,99805.75
2023-04-20T20:46:48.789Z,99804.53
2023-04-20T20:49:19.374Z,99814.78
2023-04-20T20:51:49.807Z,99813.75
2023-04-20T20:54:22.865Z,99806.28
2023-04-20T20:56:53.186Z,99811.81
2023-04-20T20:59:26.236Z,99817.69
2023-04-20T21:01:56.883Z,99815.50
2023-04-20T21:04:27.524Z,99819.72
2023-04-20T21:06:57.850Z,99815.22
2023-04-20T21:09:30.721Z,99815.94
2023-04-20T21:12:01.479Z,99810.84
2023-04-20T21:14:31.732Z,99819.66
2023-04-20T21:17:02.308Z,99815.97
2023-04-20T21:19:32.674Z,99815.84
2023-04-20T21:22:02.906Z,99818.09
2023-04-20T21:24:35.786Z,99816.56
2023-04-20T21:27:06.116Z,99819.34
2023-04-20T21:29:36.425Z,99818.66
2023-04-20T21:32:07.437Z,99814.88
2023-04-20T21:34:37.769Z,99816.28
2023-04-20T21:37:11.314Z,99810.06
2023-04-20T21:39:44.275Z,99819.53
2023-04-20T21:42:14.622Z,99824.00
2023-04-20T21:44:45.002Z,99815.06
2023-04-20T21:47:15.260Z,99819.13
2023-04-20T21:49:45.650Z,99827.38
2023-04-20T21:52:15.895Z,99824.84
2023-04-20T21:54:49.108Z,99823.19
2023-04-20T21:57:19.410Z,99820.13
2023-04-20T21:59:49.683Z,99822.81
2023-04-20T22:02:20.225Z,99823.50
2023-04-20T22:04:51.253Z,99816.53
2023-04-20T22:07:24.175Z,99833.22
2023-04-20T22:09:57.108Z,99830.03
2023-04-20T22:12:39.292Z,99818.63
2023-04-20T22:15:15.304Z,99806.34
2023-04-20T22:17:48.175Z,99813.59
2023-04-20T22:20:20.089Z,99785.84
2023-04-20T22:22:50.534Z,99810.53
2023-04-20T22:25:24.831Z,99815.66
2023-04-20T22:27:55.681Z,99813.84
2023-04-20T22:30:26.427Z,99810.91
2023-04-20T22:32:56.946Z,99815.19
2023-04-20T22:35:27.243Z,99818.78
2023-04-20T22:37:57.492Z,99818.47
2023-04-20T22:40:30.710Z,99820.63
2023-04-20T22:43:00.989Z,99816.00
2023-04-20T22:45:31.578Z,99817.41
2023-04-20T22:48:01.874Z,99819.03
2023-04-20T22:50:32.169Z,99814.00
2023-04-20T22:53:02.414Z,99814.66
2023-04-20T22:55:35.342Z,99811.59
2023-04-20T22:58:05.549Z,99817.00
2023-04-20T23:00:36.048Z,99815.13
2023-04-20T23:03:06.500Z,99820.09
2023-04-20T23:05:37.005Z,99822.03
2023-04-20T23:08:07.382Z,99824.38
2023-04-20T23:10:41.086Z,99827.53
2023-04-20T23:13:17.055Z,99824.69
2023-04-20T23:15:47.347Z,99835.09
2023-04-20T23:18:17.690Z,99835.22
2023-04-20T23:20:48.001Z,99834.22
2023-04-20T23:23:18.328Z,99828.72
2023-04-20T23:25:51.285Z,99827.19
2023-04-20T23:28:21.787Z,99827.44
2023-04-20T23:30:55.113Z,99831.03
2023-04-20T23:33:25.540Z,99822.53
2023-04-20T23:35:55.919Z,99833.66
2023-04-20T23:38:29.072Z,99822.78
2023-04-20T23:41:04.969Z,99824.97
2023-04-20T23:43:35.218Z,99808.19
2023-04-20T23:46:05.916Z,99813.47
2023-04-20T23:48:36.978Z,99812.28
2023-04-20T23:51:08.034Z,99812.66
2023-04-20T23:53:39.373Z,99815.91
2023-04-20T23:56:12.722Z,99820.09
2023-04-20T23:58:43.045Z,99812.84
